Richibucto, Canada
Current Conditions -  °F | °C
As of 8:00 PM on Wednesday 26 Nov 2014 (Local Time) from CYQM Reporting Station
Light Snow Light Snow  
Wind Chill: 26°   Ceiling: 1200
Heat Index: 32°   Visibility: 3mi
Dew Point: 30°   Wind: 6mph
Humidity: 93%   Direction: 40°NE
Pressure: 30.12"   Gusts: NA
Location:  46.68°N, 64.87°W
Report Text: CYQM 270000Z 04005KT 3SM -SN OVC012 00/M01 A3012 RMK SF8 SLP203
Loading
Personal Weather Stations






























Interactive Weather Map New forecast layout! Learn more

10-Day Weather Forecast

Advertisements
Track Severe Weather on mobile